createdAt,value
2022-12-31T05:00:36.609Z,1.90
2022-12-31T05:11:41.457Z,1.50
2022-12-31T05:22:41.325Z,1.10
2022-12-31T05:33:41.209Z,0.80
2022-12-31T05:44:41.077Z,0.70
2022-12-31T05:55:40.958Z,0.50
2022-12-31T06:06:40.837Z,1.50
2022-12-31T06:17:40.701Z,0.70
2022-12-31T06:28:40.571Z,0.90
2022-12-31T06:39:40.486Z,1.40
2022-12-31T06:50:40.358Z,0.90
2022-12-31T07:01:40.318Z,0.80
2022-12-31T07:12:40.089Z,0.80
2022-12-31T07:23:40.170Z,1.20
2022-12-31T07:34:39.903Z,1.40
2022-12-31T07:45:39.743Z,1.70
2022-12-31T07:56:39.651Z,0.80
2022-12-31T08:07:39.463Z,0.70
2022-12-31T08:18:39.330Z,1.00
2022-12-31T08:29:39.200Z,0.80
2022-12-31T08:40:39.068Z,0.80
2022-12-31T08:51:38.999Z,1.20
2022-12-31T09:02:43.207Z,0.90
2022-12-31T09:13:38.865Z,1.00
2022-12-31T09:24:38.697Z,1.40
2022-12-31T09:35:38.459Z,1.40
2022-12-31T09:46:38.343Z,0.80
2022-12-31T09:57:38.305Z,1.10
2022-12-31T10:08:38.091Z,1.60
2022-12-31T10:19:38.012Z,1.10
2022-12-31T10:30:37.862Z,1.00
2022-12-31T10:41:37.702Z,1.50
2022-12-31T10:52:41.733Z,1.00
2022-12-31T11:03:37.491Z,1.30
2022-12-31T11:14:37.367Z,1.20
2022-12-31T11:25:37.206Z,1.10
2022-12-31T11:36:37.094Z,1.10
2022-12-31T11:47:44.739Z,1.20
2022-12-31T11:58:36.827Z,1.50
2022-12-31T12:09:36.718Z,1.40
2022-12-31T12:20:36.917Z,1.00
2022-12-31T12:31:36.493Z,1.20
2022-12-31T12:42:36.335Z,2.30
2022-12-31T12:53:36.208Z,1.20
2022-12-31T13:04:36.204Z,0.90
2022-12-31T13:15:35.967Z,1.50
2022-12-31T13:26:35.833Z,1.00
2022-12-31T13:37:35.822Z,1.30
2022-12-31T13:48:35.578Z,1.00
2022-12-31T13:59:35.454Z,1.80
2022-12-31T14:10:35.330Z,1.30
2022-12-31T14:21:35.209Z,1.10
2022-12-31T14:32:35.105Z,2.00
2022-12-31T14:43:34.963Z,1.30
2022-12-31T14:54:34.849Z,1.10
2022-12-31T15:05:34.695Z,1.90
2022-12-31T15:16:34.668Z,1.30
2022-12-31T15:27:34.454Z,1.10
2022-12-31T15:38:34.324Z,1.40
2022-12-31T15:49:34.213Z,2.10
2022-12-31T16:00:34.092Z,3.00
2022-12-31T16:11:33.948Z,4.70
2022-12-31T16:22:33.829Z,4.30
2022-12-31T16:33:33.701Z,7.30
2022-12-31T16:44:33.578Z,2.40
2022-12-31T16:55:33.464Z,2.10
2022-12-31T17:06:33.351Z,1.70
2022-12-31T17:17:33.208Z,2.80
2022-12-31T17:28:33.115Z,3.20
2022-12-31T17:39:32.955Z,5.30
2022-12-31T17:50:32.826Z,5.30
2022-12-31T18:01:32.809Z,5.90
2022-12-31T18:12:32.593Z,4.70
2022-12-31T18:23:32.462Z,4.20
2022-12-31T18:34:32.324Z,4.50
2022-12-31T18:45:32.276Z,3.70
2022-12-31T18:56:32.119Z,2.60
2022-12-31T19:07:31.961Z,2.00
2022-12-31T19:18:31.844Z,1.80
2022-12-31T19:29:31.696Z,3.30
2022-12-31T19:40:31.609Z,3.60
2022-12-31T19:51:31.486Z,2.50
2022-12-31T20:02:31.579Z,2.80
2022-12-31T20:13:31.205Z,2.70
2022-12-31T20:24:31.096Z,3.30
2022-12-31T20:35:30.967Z,4.80
2022-12-31T20:46:30.859Z,6.50
2022-12-31T20:57:33.940Z,2.50
2022-12-31T21:08:34.798Z,3.70
2022-12-31T21:19:30.451Z,2.90
2022-12-31T21:30:31.322Z,3.70
2022-12-31T21:41:33.462Z,2.30
2022-12-31T21:52:30.082Z,3.50
